Time;durP1;ratioP1;P1;durP2;ratioP2;P2;SDS_P1;SDS_P2;PMS_P1;PMS_P2;Temp;Humidity;BMP_temperature;BMP_pressure;BME280_temperature;BME280_humidity;BME280_pressure;Samples;Min_cycle;Max_cycle;Signal;HPM_P1;HPM_P2
2023/12/04 00:01:23;;;;;;;2.73;1.40;;;;;;;-9.04;100.00;98455.13;6254194;28;20254;-46
2023/12/04 00:04:26;;;;;;;2.27;1.70;;;;;;;-9.19;100.00;98437.13;6248756;28;20691;-43
2023/12/04 00:07:28;;;;;;;2.37;1.77;;;;;;;-9.12;100.00;98456.44;6249722;28;20956;-45
2023/12/04 00:10:31;;;;;;;2.27;1.90;;;;;;;-9.01;100.00;98460.06;6250573;28;20667;-44
2023/12/04 00:13:34;;;;;;;2.60;1.77;;;;;;;-9.15;100.00;98454.06;6249421;28;20196;-44
2023/12/04 00:16:36;;;;;;;2.33;1.90;;;;;;;-9.21;100.00;98469.09;6251053;28;20214;-45
2023/12/04 00:19:38;;;;;;;2.03;1.73;;;;;;;-9.34;100.00;98463.94;6249238;28;20193;-45
2023/12/04 00:22:41;;;;;;;2.40;1.70;;;;;;;-9.26;100.00;98458.25;6257413;28;20203;-45
2023/12/04 00:25:43;;;;;;;3.00;1.83;;;;;;;-9.41;100.00;98468.66;6261772;28;20198;-45
2023/12/04 00:28:45;;;;;;;3.13;2.10;;;;;;;-9.39;100.00;98461.63;6255100;28;20265;-46
2023/12/04 00:31:47;;;;;;;2.60;2.27;;;;;;;-9.72;100.00;98425.91;6250726;28;20585;-45
2023/12/04 00:34:49;;;;;;;2.50;1.63;;;;;;;-9.63;100.00;98464.00;6256672;28;20192;-46
2023/12/04 00:37:51;;;;;;;2.93;1.60;;;;;;;-9.67;100.00;98454.81;6265417;28;20191;-45
2023/12/04 00:40:53;;;;;;;2.57;1.83;;;;;;;-9.74;100.00;98453.53;6254728;28;20195;-47
2023/12/04 00:43:55;;;;;;;2.23;1.70;;;;;;;-9.74;100.00;98461.28;6254149;28;20195;-47
2023/12/04 00:46:58;;;;;;;2.40;1.70;;;;;;;-9.72;100.00;98463.75;6247877;28;20281;-45
2023/12/04 00:50:00;;;;;;;2.93;1.90;;;;;;;-9.73;100.00;98446.63;6252117;28;20196;-46
2023/12/04 00:53:02;;;;;;;2.40;1.70;;;;;;;-9.66;100.00;98471.91;6262150;28;20206;-47
2023/12/04 00:56:06;;;;;;;3.80;1.57;;;;;;;-9.86;100.00;98474.91;6247132;28;20191;-46
2023/12/04 00:59:09;;;;;;;1.83;1.60;;;;;;;-9.82;100.00;98465.25;6264113;28;20218;-46
2023/12/04 01:02:11;;;;;;;2.33;1.60;;;;;;;-9.72;100.00;98476.66;6260769;28;20203;-43
2023/12/04 01:05:13;;;;;;;2.23;1.57;;;;;;;-9.65;100.00;98477.94;6251476;28;20196;-44
2023/12/04 01:08:15;;;;;;;2.63;1.80;;;;;;;-9.71;100.00;98473.13;6253863;28;20231;-46
2023/12/04 01:11:17;;;;;;;2.47;1.90;;;;;;;-9.72;100.00;98469.72;6245991;28;20192;-44
2023/12/04 01:14:20;;;;;;;2.03;1.77;;;;;;;-10.07;100.00;98448.72;6253569;28;20192;-44
2023/12/04 01:17:22;;;;;;;1.97;1.67;;;;;;;-10.12;100.00;98466.22;6241080;28;20660;-46
2023/12/04 01:20:24;;;;;;;4.07;2.13;;;;;;;-10.13;100.00;98462.81;6245904;28;20195;-45
2023/12/04 01:23:26;;;;;;;2.60;1.83;;;;;;;-10.09;100.00;98449.75;6259160;28;20687;-45
2023/12/04 01:26:29;;;;;;;2.40;1.70;;;;;;;-10.06;100.00;98452.13;6259120;28;20197;-46
2023/12/04 01:29:32;;;;;;;4.70;2.10;;;;;;;-10.27;100.00;98462.84;6256915;28;20207;-45
2023/12/04 01:32:34;;;;;;;2.60;1.90;;;;;;;-10.23;100.00;98463.47;6254645;28;20769;-44
2023/12/04 01:35:37;;;;;;;2.63;1.83;;;;;;;-10.31;100.00;98466.50;6258020;28;20286;-45
2023/12/04 01:38:39;;;;;;;3.20;1.77;;;;;;;-10.22;100.00;98471.09;6261294;28;20544;-45
2023/12/04 01:41:41;;;;;;;5.00;2.10;;;;;;;-10.32;100.00;98470.03;6251359;28;20200;-44
2023/12/04 01:44:43;;;;;;;2.40;1.60;;;;;;;-10.31;100.00;98473.41;6246935;28;20222;-45
2023/12/04 01:47:46;;;;;;;3.00;1.67;;;;;;;-10.63;100.00;98445.28;6251691;28;20204;-46
2023/12/04 01:50:49;;;;;;;2.73;1.80;;;;;;;-10.50;100.00;98465.97;6253797;28;20540;-46
2023/12/04 01:53:51;;;;;;;2.57;1.70;;;;;;;-10.59;100.00;98463.91;6254365;28;20195;-44
2023/12/04 01:56:54;;;;;;;2.80;1.80;;;;;;;-10.59;100.00;98469.88;6255999;28;20191;-44
2023/12/04 01:59:56;;;;;;;3.10;1.40;;;;;;;-10.67;100.00;98461.81;6259542;28;20306;-43
2023/12/04 02:02:59;;;;;;;2.43;1.40;;;;;;;-10.88;100.00;98422.72;6256926;28;20222;-45
2023/12/04 02:06:03;;;;;;;2.23;1.40;;;;;;;-10.70;100.00;98436.25;6253808;28;20274;-43
2023/12/04 02:09:06;;;;;;;1.40;1.30;;;;;;;-10.70;100.00;98446.53;6253814;28;20582;-45
2023/12/04 02:12:09;;;;;;;2.53;1.70;;;;;;;-10.83;100.00;98422.47;6253364;28;20190;-44
2023/12/04 02:15:11;;;;;;;2.23;1.67;;;;;;;-10.49;100.00;98444.44;6248883;28;20334;-45
2023/12/04 02:18:14;;;;;;;1.90;1.60;;;;;;;-10.53;100.00;98443.81;6249592;28;20210;-44
2023/12/04 02:21:16;;;;;;;2.60;1.43;;;;;;;-10.64;100.00;98438.44;6249414;28;20878;-44
2023/12/04 02:24:18;;;;;;;1.87;1.37;;;;;;;-10.55;100.00;98439.66;6251794;28;20751;-44
2023/12/04 02:27:25;;;;;;;2.13;1.60;;;;;;;-10.51;100.00;98434.22;6246710;28;20684;-45
2023/12/04 02:30:29;;;;;;;1.67;1.30;;;;;;;-10.69;100.00;98428.44;6254028;28;20575;-44
2023/12/04 02:33:35;;;;;;;2.33;1.57;;;;;;;-10.64;100.00;98425.56;6248707;28;20717;-44
2023/12/04 02:36:39;;;;;;;1.87;1.30;;;;;;;-10.59;100.00;98423.56;6247882;28;20224;-46
2023/12/04 02:39:42;;;;;;;1.37;1.03;;;;;;;-10.73;100.00;98419.25;6251569;28;20660;-45
2023/12/04 02:42:45;;;;;;;1.53;1.10;;;;;;;-10.79;100.00;98416.19;6246964;28;20567;-44
2023/12/04 02:45:47;;;;;;;1.00;0.90;;;;;;;-10.77;100.00;98416.94;6257688;28;20275;-44
2023/12/04 02:48:49;;;;;;;1.47;1.07;;;;;;;-10.76;100.00;98405.72;6258244;28;20203;-47
2023/12/04 02:51:51;;;;;;;1.20;1.03;;;;;;;-10.61;100.00;98412.53;6262780;28;20214;-44
2023/12/04 02:54:53;;;;;;;1.47;0.80;;;;;;;-10.49;100.00;98406.66;6261487;28;20203;-45
2023/12/04 02:57:55;;;;;;;1.77;1.00;;;;;;;-10.79;100.00;98362.97;6260318;28;20191;-46
2023/12/04 03:00:57;;;;;;;1.33;0.90;;;;;;;-10.68;100.00;98416.41;6244623;28;20325;-45
2023/12/04 03:04:00;;;;;;;1.40;1.10;;;;;;;-10.71;100.00;98407.09;6248040;28;20286;-44
2023/12/04 03:07:02;;;;;;;0.77;0.70;;;;;;;-10.73;100.00;98411.53;6249512;28;20256;-44
2023/12/04 03:10:05;;;;;;;2.10;0.90;;;;;;;-10.67;100.00;98420.63;6239473;28;20200;-45
2023/12/04 03:13:07;;;;;;;1.43;1.00;;;;;;;-10.76;100.00;98414.28;6256169;28;20199;-46
2023/12/04 03:16:17;;;;;;;1.27;0.90;;;;;;;-10.81;100.00;98418.88;6250011;28;20203;-45
2023/12/04 03:19:19;;;;;;;1.53;1.00;;;;;;;-11.04;100.00;98401.38;6253927;28;20196;-45
2023/12/04 03:22:21;;;;;;;0.83;0.77;;;;;;;-10.85;100.00;98412.22;6235668;28;20676;-44
2023/12/04 03:25:23;;;;;;;1.10;0.90;;;;;;;-10.90;100.00;98414.25;6256902;28;20218;-44
2023/12/04 03:28:25;;;;;;;1.20;0.93;;;;;;;-11.10;100.00;98415.41;6258626;28;20697;-44
2023/12/04 03:31:28;;;;;;;1.13;0.93;;;;;;;-11.05;100.00;98400.53;6253741;28;20224;-43
2023/12/04 03:34:30;;;;;;;0.97;0.90;;;;;;;-11.03;100.00;98395.28;6248332;28;20228;-45
2023/12/04 03:37:34;;;;;;;2.47;1.20;;;;;;;-11.26;100.00;98374.31;6249732;28;20290;-43
2023/12/04 03:40:36;;;;;;;1.23;0.80;;;;;;;-11.05;100.00;98397.13;6251755;28;20553;-44
2023/12/04 03:43:38;;;;;;;1.17;0.90;;;;;;;-10.99;100.00;98396.78;6247063;28;20191;-45
2023/12/04 03:46:40;;;;;;;1.10;0.93;;;;;;;-11.10;100.00;98373.44;6253606;28;20236;-43
2023/12/04 03:49:42;;;;;;;1.23;1.00;;;;;;;-10.99;100.00;98386.47;6248876;28;20204;-45
2023/12/04 03:52:44;;;;;;;0.50;0.50;;;;;;;-11.13;100.00;98386.47;6249750;28;20343;-43
2023/12/04 03:55:46;;;;;;;0.80;0.80;;;;;;;-11.27;100.00;98393.25;6249767;28;20196;-44
2023/12/04 03:58:48;;;;;;;2.20;1.00;;;;;;;-11.14;100.00;98395.09;6253625;28;20593;-43
2023/12/04 04:01:50;;;;;;;0.80;0.70;;;;;;;-11.07;100.00;98389.53;6256207;28;20648;-43
2023/12/04 04:04:52;;;;;;;1.47;0.80;;;;;;;-11.08;100.00;98387.00;6252464;28;20568;-44
2023/12/04 04:07:54;;;;;;;0.80;0.60;;;;;;;-11.13;100.00;98386.47;6250502;28;20654;-43
2023/12/04 04:10:56;;;;;;;1.00;0.77;;;;;;;-11.22;100.00;98378.38;6249508;28;20196;-45
2023/12/04 04:13:58;;;;;;;1.10;0.90;;;;;;;-11.27;100.00;98375.25;6249955;28;20236;-42
2023/12/04 04:17:00;;;;;;;2.30;0.80;;;;;;;-11.39;100.00;98375.13;6243191;28;20446;-42
2023/12/04 04:20:02;;;;;;;0.70;0.53;;;;;;;-11.49;100.00;98369.66;6246260;28;20796;-42
2023/12/04 04:23:05;;;;;;;0.80;0.80;;;;;;;-11.48;100.00;98367.00;6256810;28;20594;-42
2023/12/04 04:26:07;;;;;;;1.87;1.00;;;;;;;-11.60;100.00;98366.88;6250611;28;20191;-42
2023/12/04 04:29:09;;;;;;;0.90;0.63;;;;;;;-11.58;100.00;98359.91;6253896;28;20210;-42
2023/12/04 04:32:11;;;;;;;0.87;0.80;;;;;;;-11.53;100.00;98360.47;6252672;28;20227;-42
2023/12/04 04:35:15;;;;;;;0.70;0.63;;;;;;;-11.63;100.00;98360.16;6253840;28;20227;-43
2023/12/04 04:38:17;;;;;;;1.27;1.00;;;;;;;-11.59;100.00;98358.25;6257083;28;20195;-45
2023/12/04 04:41:19;;;;;;;1.30;0.90;;;;;;;-11.61;100.00;98352.38;6254209;28;20206;-43
2023/12/04 04:44:21;;;;;;;1.27;0.97;;;;;;;-11.52;100.00;98368.13;6251049;28;20208;-42
2023/12/04 04:47:26;;;;;;;1.33;1.00;;;;;;;-11.52;100.00;98365.53;6257705;28;20282;-43
2023/12/04 04:50:28;;;;;;;2.53;1.60;;;;;;;-11.33;100.00;98352.44;6248905;28;20204;-46
2023/12/04 04:53:31;;;;;;;1.97;1.33;;;;;;;-11.53;100.00;98333.03;6250920;28;20212;-42
2023/12/04 04:56:33;;;;;;;3.63;2.30;;;;;;;-11.53;100.00;98360.47;6264684;28;20203;-42
2023/12/04 04:59:35;;;;;;;8.20;2.50;;;;;;;-11.46;100.00;98351.50;6264156;28;20203;-46
2023/12/04 05:02:37;;;;;;;4.33;2.57;;;;;;;-11.55;100.00;98359.75;6257236;28;20203;-42
2023/12/04 05:05:39;;;;;;;4.70;2.57;;;;;;;-11.47;100.00;98352.44;6253345;28;20684;-43
2023/12/04 05:08:41;;;;;;;4.60;2.90;;;;;;;-11.36;100.00;98349.25;6250439;28;20214;-42
2023/12/04 05:11:43;;;;;;;5.17;3.20;;;;;;;-11.49;100.00;98323.41;6254162;28;20668;-45
2023/12/04 05:14:45;;;;;;;5.50;3.57;;;;;;;-11.23;100.00;98348.44;6256726;28;20609;-44
2023/12/04 05:17:47;;;;;;;6.47;3.53;;;;;;;-11.35;100.00;98336.28;6252700;28;20199;-43
2023/12/04 05:20:49;;;;;;;5.97;3.63;;;;;;;-11.50;100.00;98340.56;6255450;28;20202;-43
2023/12/04 05:23:52;;;;;;;5.93;3.20;;;;;;;-11.60;100.00;98338.63;6261912;28;20639;-43
2023/12/04 05:26:54;;;;;;;5.77;3.10;;;;;;;-11.57;100.00;98333.31;6261426;28;20191;-43
2023/12/04 05:29:56;;;;;;;5.60;4.07;;;;;;;-11.49;100.00;98326.78;6257442;28;20632;-42
2023/12/04 05:32:58;;;;;;;4.73;3.37;;;;;;;-11.48;100.00;98327.63;6262241;28;20271;-43
2023/12/04 05:36:01;;;;;;;6.23;3.67;;;;;;;-11.51;100.00;98322.66;6250379;28;20196;-43
2023/12/04 05:39:04;;;;;;;9.77;4.83;;;;;;;-11.40;100.00;98327.19;6244463;28;20206;-44
2023/12/04 05:42:06;;;;;;;8.63;4.50;;;;;;;-11.38;100.00;98322.78;6246429;28;20573;-44
2023/12/04 05:45:09;;;;;;;7.33;4.17;;;;;;;-11.35;100.00;98313.16;6251120;28;20619;-43
2023/12/04 05:48:11;;;;;;;7.03;3.80;;;;;;;-11.42;100.00;98321.31;6253296;28;20189;-44
2023/12/04 05:51:14;;;;;;;7.00;4.77;;;;;;;-11.47;100.00;98303.59;6252276;28;20207;-45
2023/12/04 05:54:16;;;;;;;8.90;4.83;;;;;;;-11.44;100.00;98305.97;6252501;28;20199;-45
2023/12/04 05:57:18;;;;;;;7.63;4.20;;;;;;;-11.53;100.00;98303.91;6255231;28;20233;-44
2023/12/04 06:00:21;;;;;;;5.57;4.10;;;;;;;-11.54;100.00;98303.09;6256932;28;20203;-42
2023/12/04 06:03:27;;;;;;;8.70;4.43;;;;;;;-11.60;100.00;98308.59;6255856;28;20198;-42
2023/12/04 06:06:29;;;;;;;7.43;4.50;;;;;;;-11.72;100.00;98299.03;6250802;28;20186;-41
2023/12/04 06:09:31;;;;;;;7.47;4.80;;;;;;;-11.56;100.00;98314.41;6252070;28;20196;-43
2023/12/04 06:12:33;;;;;;;6.97;4.90;;;;;;;-11.45;100.00;98322.31;6253425;28;20192;-42
2023/12/04 06:15:35;;;;;;;7.43;4.83;;;;;;;-11.49;100.00;98311.38;6254271;28;20200;-44
2023/12/04 06:18:37;;;;;;;7.70;3.97;;;;;;;-11.64;100.00;98285.72;6248753;28;20675;-43
2023/12/04 06:21:40;;;;;;;5.47;4.10;;;;;;;-11.80;100.00;98293.50;6247591;28;20200;-43
2023/12/04 06:24:43;;;;;;;7.60;4.33;;;;;;;-11.65;100.00;98300.31;6247263;28;20191;-42
2023/12/04 06:27:45;;;;;;;8.50;4.53;;;;;;;-11.61;100.00;98304.38;6250190;28;20192;-42
2023/12/04 06:30:48;;;;;;;9.00;5.13;;;;;;;-11.74;100.00;98306.81;6260024;28;20612;-43
2023/12/04 06:33:50;;;;;;;8.03;5.17;;;;;;;-11.57;100.00;98298.16;6254479;28;20235;-42
2023/12/04 06:36:55;;;;;;;7.20;4.60;;;;;;;-11.56;100.00;98288.69;6250479;28;20268;-42
2023/12/04 06:40:02;;;;;;;8.80;4.47;;;;;;;-11.91;100.00;98259.94;6254173;28;20251;-41
2023/12/04 06:43:05;;;;;;;8.77;4.97;;;;;;;-11.64;100.00;98291.69;6267424;28;20571;-43
2023/12/04 06:46:08;;;;;;;9.97;4.77;;;;;;;-11.55;100.00;98286.03;6249400;28;20659;-43
2023/12/04 06:49:12;;;;;;;6.97;4.17;;;;;;;-11.49;100.00;98289.97;6250776;28;20695;-43
2023/12/04 06:52:14;;;;;;;9.33;4.60;;;;;;;-11.42;100.00;98283.59;6251967;28;20199;-43
2023/12/04 06:55:16;;;;;;;7.33;5.00;;;;;;;-11.42;100.00;98287.91;6251156;28;20241;-42
2023/12/04 06:58:19;;;;;;;7.97;4.43;;;;;;;-11.59;100.00;98278.59;6246339;28;20698;-42
2023/12/04 07:01:22;;;;;;;7.53;4.77;;;;;;;-11.69;100.00;98270.59;6245813;28;20652;-44
2023/12/04 07:04:24;;;;;;;7.43;4.70;;;;;;;-11.59;100.00;98278.59;6254270;28;20200;-42
2023/12/04 07:07:26;;;;;;;7.83;5.07;;;;;;;-11.50;100.00;98271.16;6248757;28;20585;-42
2023/12/04 07:10:28;;;;;;;6.57;4.17;;;;;;;-11.43;100.00;98276.75;6250477;28;20191;-43
2023/12/04 07:13:33;;;;;;;7.83;4.53;;;;;;;-11.40;100.00;98263.75;6256237;28;20198;-42
2023/12/04 07:16:42;;;;;;;6.67;4.43;;;;;;;-11.37;100.00;98255.84;6252833;28;20203;-44
2023/12/04 07:19:44;;;;;;;6.90;4.33;;;;;;;-11.38;100.00;98255.94;6254445;28;20695;-43
2023/12/04 07:22:46;;;;;;;10.43;4.90;;;;;;;-11.52;100.00;98234.47;6258857;28;20262;-42
2023/12/04 07:25:48;;;;;;;8.03;5.13;;;;;;;-11.60;100.00;98220.41;6255454;28;20192;-43
2023/12/04 07:28:50;;;;;;;7.83;5.10;;;;;;;-11.35;100.00;98254.00;6258112;28;20187;-42
2023/12/04 07:31:52;;;;;;;7.57;4.63;;;;;;;-11.27;100.00;98248.44;6256993;28;20226;-44
2023/12/04 07:34:54;;;;;;;7.20;4.40;;;;;;;-11.26;100.00;98252.66;6247492;28;20279;-44
2023/12/04 07:37:56;;;;;;;7.00;4.30;;;;;;;-11.26;100.00;98238.03;6248840;28;20283;-43
2023/12/04 07:40:58;;;;;;;8.57;4.73;;;;;;;-11.18;100.00;98246.13;6267105;28;20233;-44
2023/12/04 07:44:00;;;;;;;8.07;4.70;;;;;;;-11.16;100.00;98240.06;6244238;28;20609;-45
2023/12/04 07:47:02;;;;;;;7.40;4.90;;;;;;;-11.08;100.00;98242.97;6248407;28;20627;-42
2023/12/04 07:50:05;;;;;;;6.13;4.13;;;;;;;-11.04;100.00;98232.41;6248828;28;20274;-46
2023/12/04 07:53:09;;;;;;;7.67;4.83;;;;;;;-10.97;100.00;98235.47;6249593;28;20636;-43
2023/12/04 07:56:12;;;;;;;6.60;4.40;;;;;;;-10.97;100.00;98235.47;6252888;28;20195;-43
2023/12/04 07:59:14;;;;;;;6.80;4.20;;;;;;;-11.00;100.00;98227.91;6239694;28;21006;-44
2023/12/04 08:02:16;;;;;;;8.00;4.10;;;;;;;-10.94;100.00;98225.78;6254693;28;20199;-44
2023/12/04 08:05:18;;;;;;;8.67;4.53;;;;;;;-11.08;100.00;98183.81;6251327;28;20696;-44
2023/12/04 08:08:20;;;;;;;7.63;4.27;;;;;;;-10.83;100.00;98214.84;6253499;28;20210;-44
2023/12/04 08:11:23;;;;;;;6.93;4.53;;;;;;;-10.97;100.00;98166.81;6253132;28;20254;-43
2023/12/04 08:14:27;;;;;;;7.50;4.47;;;;;;;-10.92;100.00;98153.66;6248330;28;20276;-44
2023/12/04 08:17:30;;;;;;;8.10;4.33;;;;;;;-10.55;100.00;98192.50;6252259;28;20292;-42
2023/12/04 08:20:32;;;;;;;6.13;4.30;;;;;;;-10.45;100.00;98185.84;6230489;28;20219;-43
2023/12/04 08:23:41;;;;;;;9.43;5.27;;;;;;;-10.30;100.00;98174.56;6252540;28;20203;-42
2023/12/04 08:26:46;;;;;;;8.80;4.83;;;;;;;-10.37;100.00;98137.28;6248185;28;20278;-44
2023/12/04 08:29:48;;;;;;;7.53;4.33;;;;;;;-10.14;100.00;98166.66;6251652;28;20196;-43
2023/12/04 08:32:51;;;;;;;7.13;4.17;;;;;;;-10.00;100.00;98168.28;6249991;28;20483;-44
2023/12/04 08:35:53;;;;;;;5.00;3.70;;;;;;;-9.90;100.00;98166.75;6249555;28;20663;-43
2023/12/04 08:38:55;;;;;;;6.93;4.10;;;;;;;-9.78;100.00;98165.13;6249821;28;20215;-44
2023/12/04 08:41:57;;;;;;;6.80;4.47;;;;;;;-9.70;100.00;98165.47;6251221;28;20192;-44
2023/12/04 08:45:06;;;;;;;6.57;4.07;;;;;;;-9.61;100.00;98160.47;6250420;28;20271;-44
2023/12/04 08:48:10;;;;;;;6.67;4.33;;;;;;;-9.45;100.00;98160.28;6250063;28;20736;-43
2023/12/04 08:51:30;;;;;;;8.73;4.57;;;;;;;-9.06;100.00;98170.50;6248337;28;20689;-45
2023/12/04 08:54:33;;;;;;;10.53;5.60;;;;;;;-8.77;100.00;98147.81;6251172;28;20203;-46
2023/12/04 08:57:36;;;;;;;9.17;5.67;;;;;;;-8.39;100.00;98142.47;6246250;28;20196;-44
2023/12/04 09:00:42;;;;;;;8.60;5.63;;;;;;;-8.11;100.00;98141.25;6242368;28;20207;-45
2023/12/04 09:03:45;;;;;;;9.40;5.73;;;;;;;-7.88;100.00;98137.78;6245944;28;20198;-43
2023/12/04 09:06:47;;;;;;;11.47;6.63;;;;;;;-7.65;100.00;98130.03;6250783;28;20241;-44
2023/12/04 09:09:52;;;;;;;8.90;5.93;;;;;;;-7.37;100.00;98115.81;6246065;28;20188;-43
2023/12/04 09:12:54;;;;;;;10.07;6.30;;;;;;;-7.07;100.00;98110.84;6251820;28;20700;-45
2023/12/04 09:15:56;;;;;;;13.03;7.83;;;;;;;-6.93;100.00;98098.59;6254534;28;20276;-44
2023/12/04 09:18:58;;;;;;;13.70;8.20;;;;;;;-6.65;100.00;98107.53;6257679;28;20301;-45
2023/12/04 09:22:01;;;;;;;13.53;8.27;;;;;;;-6.42;100.00;98106.50;6261426;28;20194;-45
2023/12/04 09:25:18;;;;;;;12.33;8.00;;;;;;;-6.14;100.00;98104.28;6257678;28;20200;-46
2023/12/04 09:28:20;;;;;;;10.70;7.10;;;;;;;-5.94;100.00;98100.03;6245369;28;20187;-45
2023/12/04 09:31:22;;;;;;;13.30;8.07;;;;;;;-5.73;100.00;98093.00;6262871;28;20584;-52
2023/12/04 09:34:24;;;;;;;13.80;8.97;;;;;;;-5.53;100.00;98062.75;6261770;28;20745;-48
2023/12/04 09:37:26;;;;;;;13.70;8.77;;;;;;;-5.34;100.00;98062.00;6245303;28;20200;-48
2023/12/04 09:40:28;;;;;;;13.90;8.47;;;;;;;-5.21;100.00;98047.03;6254890;28;20709;-46
2023/12/04 09:43:34;;;;;;;16.70;10.33;;;;;;;-5.15;100.00;98048.25;6251538;28;20200;-46
2023/12/04 09:46:38;;;;;;;15.10;9.47;;;;;;;-5.09;100.00;98025.16;6254297;28;20204;-45
2023/12/04 09:49:40;;;;;;;14.40;8.47;;;;;;;-4.88;100.00;98035.44;6253271;28;20567;-45
2023/12/04 09:52:42;;;;;;;14.27;9.63;;;;;;;-4.85;100.00;98023.94;6252960;28;20245;-45
2023/12/04 09:55:48;;;;;;;15.10;9.47;;;;;;;-4.74;100.00;98026.41;6257355;28;20241;-46
2023/12/04 09:58:57;;;;;;;14.53;9.07;;;;;;;-4.69;100.00;98029.41;6257434;28;20195;-44
2023/12/04 10:01:59;;;;;;;13.83;8.87;;;;;;;-4.64;100.00;98024.63;6257572;28;20200;-46
2023/12/04 10:05:04;;;;;;;11.17;8.23;;;;;;;-4.78;100.00;97989.50;6257957;28;20199;-46
2023/12/04 10:08:06;;;;;;;15.43;8.80;;;;;;;-4.55;100.00;98002.19;6254560;28;20274;-46
2023/12/04 10:11:09;;;;;;;13.07;8.50;;;;;;;-4.56;100.00;98014.38;6250474;28;20220;-45
2023/12/04 10:14:19;;;;;;;12.77;8.83;;;;;;;-4.62;100.00;97985.53;6255027;28;20241;-46
2023/12/04 10:17:21;;;;;;;14.53;9.37;;;;;;;-4.53;100.00;97995.91;6250313;28;20200;-46
2023/12/04 10:20:24;;;;;;;12.83;9.33;;;;;;;-4.46;100.00;97985.75;6249065;28;20216;-47
2023/12/04 10:23:41;;;;;;;15.60;9.37;;;;;;;-4.36;100.00;97976.16;6249622;28;20568;-48
2023/12/04 10:26:53;;;;;;;14.43;9.13;;;;;;;-4.25;100.00;97972.56;6250347;28;20730;-47
2023/12/04 10:29:56;;;;;;;13.20;8.87;;;;;;;-4.16;100.00;97961.31;6251845;28;20954;-50
2023/12/04 10:33:01;;;;;;;15.47;8.80;;;;;;;-4.03;100.00;97954.03;6250313;28;20236;-49
2023/12/04 10:36:04;;;;;;;12.30;8.93;;;;;;;-3.88;100.00;97953.56;6252667;28;20905;-48
2023/12/04 10:39:06;;;;;;;13.80;8.27;;;;;;;-3.74;100.00;97953.09;6254281;28;20642;-47
2023/12/04 10:42:08;;;;;;;17.53;8.67;;;;;;;-3.65;100.00;97934.78;6253838;28;20647;-47
2023/12/04 10:45:10;;;;;;;11.53;8.00;;;;;;;-3.49;100.00;97934.16;6253576;28;20234;-47
2023/12/04 10:48:14;;;;;;;12.40;7.93;;;;;;;-3.31;98.97;97921.13;6253172;28;20575;-47
2023/12/04 10:51:17;;;;;;;11.10;7.70;;;;;;;-3.13;98.60;97910.72;6253059;28;20191;-46
2023/12/04 10:54:19;;;;;;;9.67;6.90;;;;;;;-3.01;99.50;97900.88;6253017;28;20572;-49
2023/12/04 10:57:36;;;;;;;10.67;7.07;;;;;;;-2.79;99.39;97892.59;6253452;28;20266;-49
2023/12/04 11:00:47;;;;;;;10.87;7.27;;;;;;;-2.63;96.97;97876.22;6245377;28;20740;-48
2023/12/04 11:03:53;;;;;;;10.73;7.33;;;;;;;-2.56;96.16;97871.22;6236254;28;20192;-49
2023/12/04 11:06:55;;;;;;;14.00;7.23;;;;;;;-2.50;93.22;97865.41;6249236;28;20318;-47
2023/12/04 11:09:59;;;;;;;10.50;6.80;;;;;;;-2.49;93.67;97846.16;6247404;28;20196;-47
2023/12/04 11:13:22;;;;;;;10.07;6.90;;;;;;;-2.28;95.97;97854.41;6248808;28;20196;-47
2023/12/04 11:16:39;;;;;;;9.33;6.03;;;;;;;-2.22;94.89;97834.69;6249668;28;20571;-47
2023/12/04 11:20:16;;;;;;;8.60;6.47;;;;;;;-2.14;95.05;97835.56;6245481;28;20216;-45
2023/12/04 11:23:19;;;;;;;9.23;5.80;;;;;;;-2.11;94.52;97821.38;6256825;28;20199;-46
2023/12/04 11:26:22;;;;;;;10.53;5.97;;;;;;;-2.09;96.59;97812.41;6258162;28;20207;-46
2023/12/04 11:29:25;;;;;;;8.07;5.77;;;;;;;-2.08;95.40;97813.22;6255517;28;20680;-47
2023/12/04 11:32:29;;;;;;;8.63;6.10;;;;;;;-2.18;97.66;97786.44;6245306;28;20284;-53
2023/12/04 11:35:33;;;;;;;9.20;6.10;;;;;;;-2.05;99.32;97799.06;6262211;28;20191;-47
2023/12/04 11:38:36;;;;;;;9.90;6.17;;;;;;;-2.11;99.90;97785.66;6248096;28;20192;-49
2023/12/04 11:41:40;;;;;;;8.57;6.67;;;;;;;-2.13;100.00;97782.38;6247558;28;20785;-48
2023/12/04 11:44:42;;;;;;;12.37;6.87;;;;;;;-2.13;100.00;97776.34;6252020;28;20187;-50
2023/12/04 11:47:57;;;;;;;9.83;6.70;;;;;;;-2.11;100.00;97779.63;6251952;28;20660;-51
2023/12/04 11:51:00;;;;;;;10.00;6.83;;;;;;;-2.07;99.37;97762.66;6252170;28;20659;-50
2023/12/04 11:54:04;;;;;;;7.93;5.90;;;;;;;-2.11;98.60;97728.25;6251619;28;20192;-48
2023/12/04 11:57:10;;;;;;;11.00;7.37;;;;;;;-1.90;99.20;97745.25;6256032;28;20228;-50
2023/12/04 12:00:21;;;;;;;6.83;4.73;;;;;;;-1.70;97.21;97743.94;6243238;28;20215;-47
2023/12/04 12:03:24;;;;;;;5.80;4.13;;;;;;;-1.58;94.70;97745.28;6255415;28;20202;-49
2023/12/04 12:06:28;;;;;;;8.67;4.70;;;;;;;-1.50;97.35;97730.56;6254959;28;20191;-48
2023/12/04 12:09:32;;;;;;;8.57;5.03;;;;;;;-1.44;99.23;97735.13;6251685;28;20199;-45
2023/12/04 12:12:36;;;;;;;5.83;4.47;;;;;;;-1.32;90.12;97716.34;6254835;28;20215;-47
2023/12/04 12:15:38;;;;;;;4.23;3.17;;;;;;;-0.85;78.60;97712.13;6244907;28;20283;-47
2023/12/04 12:18:41;;;;;;;3.83;2.80;;;;;;;-0.84;80.02;97709.38;6253351;28;20204;-46
2023/12/04 12:21:43;;;;;;;4.23;2.87;;;;;;;-0.97;85.63;97713.50;6248006;28;20699;-47
2023/12/04 12:24:45;;;;;;;5.13;3.50;;;;;;;-1.06;86.84;97707.47;6251348;28;20199;-47
2023/12/04 12:27:48;;;;;;;6.37;3.50;;;;;;;-0.90;81.72;97696.13;6246924;28;20195;-47
2023/12/04 12:30:52;;;;;;;7.17;3.73;;;;;;;-1.07;86.73;97696.19;6251530;28;20664;-48
2023/12/04 12:33:56;;;;;;;5.10;3.60;;;;;;;-1.09;88.10;97690.31;6231957;28;20532;-47
2023/12/04 12:36:59;;;;;;;5.13;3.60;;;;;;;-1.18;86.42;97687.88;6245663;28;20208;-48
2023/12/04 12:40:04;;;;;;;5.60;3.33;;;;;;;-1.24;89.12;97685.94;6255080;28;20567;-46
2023/12/04 12:43:08;;;;;;;4.53;3.10;;;;;;;-1.26;87.78;97667.00;6259079;28;20563;-49
2023/12/04 12:46:11;;;;;;;5.63;2.53;;;;;;;-1.28;88.35;97677.63;6258445;28;20191;-47
2023/12/04 12:49:14;;;;;;;4.10;2.47;;;;;;;-1.22;84.04;97663.09;6243751;28;20572;-48
2023/12/04 12:52:26;;;;;;;4.17;2.97;;;;;;;-1.15;84.79;97658.81;6250520;28;20254;-48
2023/12/04 12:55:28;;;;;;;4.00;2.37;;;;;;;-1.20;82.47;97666.34;6254212;28;20203;-48
2023/12/04 12:58:31;;;;;;;4.17;2.73;;;;;;;-1.11;80.95;97649.66;6249177;28;20192;-47
2023/12/04 13:01:33;;;;;;;4.77;3.47;;;;;;;-1.25;82.44;97652.94;6249951;28;20236;-48
2023/12/04 13:04:37;;;;;;;3.83;2.80;;;;;;;-1.14;80.43;97648.16;6257015;28;20210;-50
2023/12/04 13:07:41;;;;;;;4.70;3.10;;;;;;;-1.28;83.74;97643.66;6252065;28;20203;-48
2023/12/04 13:10:43;;;;;;;4.07;2.73;;;;;;;-1.35;84.83;97664.41;6260780;28;20653;-48
2023/12/04 13:13:46;;;;;;;8.67;2.80;;;;;;;-1.41;89.26;97635.53;6255250;28;20228;-47
2023/12/04 13:16:48;;;;;;;5.20;3.37;;;;;;;-1.51;83.78;97617.44;6253665;28;20195;-47
2023/12/04 13:19:50;;;;;;;5.27;3.70;;;;;;;-1.46;88.88;97643.88;6254898;28;20891;-46
2023/12/04 13:22:52;;;;;;;4.33;3.27;;;;;;;-1.26;82.36;97633.84;6254229;28;20278;-47
2023/12/04 13:25:57;;;;;;;4.13;3.43;;;;;;;-1.40;84.07;97624.91;6253881;28;20713;-48
2023/12/04 13:28:59;;;;;;;5.37;3.77;;;;;;;-1.34;85.01;97623.41;6254030;28;20238;-47
2023/12/04 13:32:01;;;;;;;3.87;3.30;;;;;;;-1.37;83.23;97616.75;6245088;28;20223;-47
2023/12/04 13:35:04;;;;;;;5.70;4.13;;;;;;;-1.47;87.47;97616.13;6263864;28;20210;-47
2023/12/04 13:38:12;;;;;;;5.73;3.93;;;;;;;-1.52;87.87;97617.59;6255544;28;20257;-48
2023/12/04 13:44:42;;;;;;;5.87;4.10;;;;;;;-1.47;85.68;97586.56;6253355;28;20188;-47
2023/12/04 13:47:44;;;;;;;7.47;4.17;;;;;;;-1.41;81.76;97594.53;6256220;28;20727;-47
2023/12/04 13:50:47;;;;;;;6.57;4.63;;;;;;;-1.42;87.50;97581.66;6237977;28;20199;-47
2023/12/04 13:53:55;;;;;;;7.83;5.03;;;;;;;-1.53;88.32;97593.25;6254324;28;20693;-45
2023/12/04 13:57:03;;;;;;;8.00;4.67;;;;;;;-1.45;87.38;97580.16;6251353;28;20261;-48
2023/12/04 14:00:06;;;;;;;5.80;4.27;;;;;;;-1.51;88.26;97575.63;6257160;28;20210;-49
2023/12/04 14:03:09;;;;;;;5.87;4.80;;;;;;;-1.14;82.02;97574.19;6260036;28;20199;-50
2023/12/04 14:06:11;;;;;;;7.87;5.40;;;;;;;-1.62;84.30;97536.81;6259798;28;20294;-51
2023/12/04 14:09:15;;;;;;;6.50;4.67;;;;;;;-1.50;84.56;97556.34;6233889;28;20192;-51
2023/12/04 14:12:18;;;;;;;6.90;5.23;;;;;;;-1.60;86.42;97548.72;6256644;28;20610;-49